createdAt,value
2022-11-05T00:00:05.615Z,90.08
2022-11-05T00:02:50.906Z,90.30
2022-11-05T00:05:36.332Z,89.99
2022-11-05T00:08:23.874Z,90.17
2022-11-05T00:10:50.737Z,90.56
2022-11-05T00:13:38.455Z,90.84
2022-11-05T00:16:40.383Z,90.45
2022-11-05T00:19:07.247Z,90.46
2022-11-05T00:21:53.799Z,91.01
2022-11-05T00:24:39.580Z,90.77
2022-11-05T00:27:06.137Z,90.97
2022-11-05T00:29:32.618Z,90.93
2022-11-05T00:31:59.312Z,91.20
2022-11-05T00:34:25.955Z,91.38
2022-11-05T00:36:52.517Z,91.12
2022-11-05T00:39:19.075Z,91.44
2022-11-05T00:42:05.649Z,91.43
2022-11-05T00:44:50.489Z,91.21
2022-11-05T00:47:35.495Z,91.25
2022-11-05T00:50:02.052Z,91.60
2022-11-05T00:52:47.016Z,91.22
2022-11-05T00:55:16.266Z,91.63
2022-11-05T00:57:42.744Z,91.17
2022-11-05T01:00:11.223Z,91.67
2022-11-05T01:02:37.994Z,91.79
2022-11-05T01:05:04.913Z,91.71
2022-11-05T01:07:33.818Z,91.54
2022-11-05T01:10:00.395Z,92.06
2022-11-05T01:12:26.960Z,91.77
2022-11-05T01:14:53.539Z,91.73
2022-11-05T01:17:20.078Z,91.77
2022-11-05T01:19:46.608Z,92.26
2022-11-05T01:22:13.394Z,91.94
2022-11-05T01:24:41.122Z,92.23
2022-11-05T01:27:07.655Z,92.03
2022-11-05T01:29:36.437Z,92.32
2022-11-05T01:32:03.054Z,92.54
2022-11-05T01:34:32.061Z,92.18
2022-11-05T01:36:58.595Z,92.23
2022-11-05T01:39:25.157Z,92.04
2022-11-05T01:41:51.687Z,92.09
2022-11-05T01:44:52.254Z,92.21
2022-11-05T01:47:43.218Z,92.27
2022-11-05T01:50:34.709Z,92.19
2022-11-05T01:53:14.160Z,92.19
2022-11-05T01:55:45.939Z,92.11
2022-11-05T01:58:18.645Z,92.25
2022-11-05T02:00:45.489Z,92.22
2022-11-05T02:03:16.324Z,92.47
2022-11-05T02:05:43.573Z,92.40
2022-11-05T02:08:19.632Z,92.43
2022-11-05T02:10:49.067Z,92.16
2022-11-05T02:13:15.618Z,92.45
2022-11-05T02:15:55.813Z,92.65
2022-11-05T02:18:45.596Z,92.40
2022-11-05T02:21:45.613Z,92.37
2022-11-05T02:24:23.639Z,92.47
2022-11-05T02:26:54.683Z,92.54
2022-11-05T02:29:33.112Z,92.52
2022-11-05T02:32:04.961Z,92.52
2022-11-05T02:34:55.825Z,92.27
2022-11-05T02:37:28.588Z,92.40
2022-11-05T02:40:10.963Z,92.61
2022-11-05T02:43:09.408Z,92.35
2022-11-05T02:46:03.167Z,92.44
2022-11-05T02:48:41.508Z,92.42
2022-11-05T02:51:16.581Z,92.55
2022-11-05T02:53:46.157Z,92.54
2022-11-05T02:56:26.927Z,92.56
2022-11-05T02:58:55.747Z,92.62
2022-11-05T03:01:22.401Z,92.61
2022-11-05T03:03:53.153Z,92.52
2022-11-05T03:06:52.020Z,92.66
2022-11-05T03:09:49.369Z,92.53
2022-11-05T03:12:24.985Z,92.59
2022-11-05T03:15:07.223Z,92.69
2022-11-05T03:17:45.067Z,92.64
2022-11-05T03:20:23.435Z,92.76
2022-11-05T03:23:20.883Z,92.68
2022-11-05T03:25:53.591Z,92.71
2022-11-05T03:28:28.035Z,92.90
2022-11-05T03:30:59.343Z,92.97
2022-11-05T03:33:29.669Z,92.95
2022-11-05T03:36:01.632Z,92.53
2022-11-05T03:38:35.080Z,92.64
2022-11-05T03:41:07.483Z,92.87
2022-11-05T03:43:40.630Z,92.79
2022-11-05T03:46:16.003Z,92.84
2022-11-05T03:48:47.352Z,93.06
2022-11-05T03:51:27.472Z,92.87
2022-11-05T03:53:57.797Z,92.98
2022-11-05T03:56:36.951Z,93.04
2022-11-05T03:59:05.961Z,93.14
2022-11-05T04:01:32.952Z,93.20
2022-11-05T04:04:01.832Z,92.86
2022-11-05T04:06:49.543Z,93.19
2022-11-05T04:09:34.819Z,93.08
2022-11-05T04:12:19.963Z,92.88
2022-11-05T04:14:46.543Z,92.83
2022-11-05T04:17:13.038Z,92.92
2022-11-05T04:20:02.304Z,92.93
2022-11-05T04:22:49.785Z,93.27
2022-11-05T04:25:17.877Z,93.13
2022-11-05T04:27:44.964Z,93.03
2022-11-05T04:30:19.361Z,93.19
2022-11-05T04:33:16.471Z,93.13
2022-11-05T04:35:46.118Z,93.01
2022-11-05T04:38:15.311Z,93.28
2022-11-05T04:40:45.892Z,93.18
2022-11-05T04:43:17.939Z,93.47
2022-11-05T04:45:45.348Z,93.55
2022-11-05T04:48:12.439Z,93.25
2022-11-05T04:50:39.293Z,93.18
2022-11-05T04:53:05.859Z,93.02
2022-11-05T04:55:32.436Z,93.12
2022-11-05T04:58:01.257Z,93.19
2022-11-05T05:00:27.777Z,93.30
2022-11-05T05:02:59.242Z,93.39
2022-11-05T05:05:30.518Z,93.33
2022-11-05T05:08:05.012Z,93.52
2022-11-05T05:10:32.529Z,93.03
2022-11-05T05:12:59.001Z,92.98
2022-11-05T05:15:25.512Z,93.00
2022-11-05T05:17:52.893Z,92.95
2022-11-05T05:20:38.656Z,92.87
2022-11-05T05:23:07.424Z,92.26
2022-11-05T05:25:34.057Z,92.26
2022-11-05T05:28:00.592Z,92.24
2022-11-05T05:30:27.121Z,92.08
2022-11-05T05:32:53.658Z,92.20
2022-11-05T05:35:22.692Z,92.27
2022-11-05T05:37:49.300Z,92.63
2022-11-05T05:40:18.135Z,92.61
2022-11-05T05:42:47.022Z,92.73
2022-11-05T05:45:13.654Z,92.88
2022-11-05T05:47:43.244Z,92.87
2022-11-05T05:50:09.861Z,92.91
2022-11-05T05:52:36.425Z,92.91
2022-11-05T05:55:02.922Z,93.04
2022-11-05T05:57:29.418Z,93.07
2022-11-05T05:59:56.060Z,93.05
2022-11-05T06:02:22.973Z,93.20
2022-11-05T06:04:49.719Z,93.09
2022-11-05T06:07:16.279Z,93.56
2022-11-05T06:09:42.799Z,92.93
2022-11-05T06:12:09.341Z,93.10
2022-11-05T06:14:35.864Z,93.19
2022-11-05T06:17:02.357Z,93.29
2022-11-05T06:19:29.245Z,93.12
2022-11-05T06:21:55.798Z,93.21
2022-11-05T06:24:22.375Z,93.29
2022-11-05T06:26:48.848Z,93.26
2022-11-05T06:29:15.353Z,93.52
2022-11-05T06:31:41.882Z,93.37
2022-11-05T06:34:08.454Z,93.38
2022-11-05T06:36:34.980Z,93.48
2022-11-05T06:39:01.805Z,93.41
2022-11-05T06:41:30.849Z,93.08
2022-11-05T06:43:57.382Z,93.34
2022-11-05T06:46:24.002Z,93.18
2022-11-05T06:48:51.075Z,92.98
2022-11-05T06:51:19.862Z,93.43
2022-11-05T06:53:46.576Z,92.97
2022-11-05T06:56:13.371Z,93.32
2022-11-05T06:58:42.268Z,93.36
2022-11-05T07:01:10.010Z,93.24
2022-11-05T07:03:37.916Z,93.13
2022-11-05T07:06:06.149Z,93.29
2022-11-05T07:08:34.522Z,93.26
2022-11-05T07:11:01.356Z,92.88
2022-11-05T07:13:28.116Z,92.84
2022-11-05T07:15:57.476Z,92.96
2022-11-05T07:18:24.081Z,93.05
2022-11-05T07:20:50.606Z,93.08
2022-11-05T07:23:17.574Z,92.67
2022-11-05T07:25:44.910Z,92.71
2022-11-05T07:28:12.175Z,92.82
2022-11-05T07:30:39.068Z,92.77
2022-11-05T07:33:05.633Z,92.33
2022-11-05T07:35:32.224Z,92.49
2022-11-05T07:37:59.387Z,92.44
2022-11-05T07:40:27.782Z,92.37
2022-11-05T07:42:56.554Z,92.23
2022-11-05T07:45:23.439Z,92.38
2022-11-05T07:47:57.938Z,92.42
2022-11-05T07:50:27.304Z,92.20
2022-11-05T07:52:54.298Z,92.18
2022-11-05T07:55:21.093Z,91.87
2022-11-05T07:57:51.124Z,92.09
2022-11-05T08:00:24.440Z,91.91
2022-11-05T08:03:09.235Z,91.92
2022-11-05T08:05:43.481Z,92.11
2022-11-05T08:08:16.340Z,91.78
2022-11-05T08:10:43.292Z,91.75
2022-11-05T08:13:10.527Z,91.66
2022-11-05T08:15:37.407Z,91.38
2022-11-05T08:18:06.768Z,91.60
2022-11-05T08:20:36.303Z,91.60
2022-11-05T08:23:03.143Z,91.61
2022-11-05T08:25:31.624Z,91.83
2022-11-05T08:28:00.236Z,91.89
2022-11-05T08:30:27.814Z,91.82
2022-11-05T08:32:59.968Z,91.47
2022-11-05T08:35:28.283Z,91.85
2022-11-05T08:38:02.986Z,91.18
2022-11-05T08:40:31.957Z,91.14
2022-11-05T08:43:00.224Z,90.93
2022-11-05T08:45:27.454Z,90.92
2022-11-05T08:48:09.543Z,90.76
2022-11-05T08:50:38.321Z,91.25
2022-11-05T08:53:06.216Z,90.92
2022-11-05T08:55:38.425Z,91.07
2022-11-05T08:58:10.603Z,89.82
2022-11-05T09:00:37.966Z,87.23
2022-11-05T09:03:07.171Z,85.47
2022-11-05T09:05:39.289Z,83.98
2022-11-05T09:08:07.925Z,82.79
2022-11-05T09:10:34.625Z,82.28
2022-11-05T09:13:01.414Z,82.20
2022-11-05T09:15:29.714Z,81.86
2022-11-05T09:17:56.580Z,81.62
2022-11-05T09:20:23.752Z,81.25
2022-11-05T09:22:50.701Z,81.12
2022-11-05T09:25:17.329Z,81.13
2022-11-05T09:27:44.076Z,81.45
2022-11-05T09:30:12.206Z,81.36
2022-11-05T09:32:39.000Z,81.27
2022-11-05T09:35:06.809Z,81.37
2022-11-05T09:37:33.494Z,81.47
2022-11-05T09:40:00.091Z,82.13
2022-11-05T09:42:42.465Z,82.50
2022-11-05T09:45:16.910Z,82.25
2022-11-05T09:47:53.898Z,82.20
2022-11-05T09:50:30.571Z,82.73
2022-11-05T09:52:57.909Z,82.01
2022-11-05T09:55:29.620Z,82.10
2022-11-05T09:58:02.270Z,81.73
2022-11-05T10:00:31.469Z,81.71
2022-11-05T10:03:04.653Z,81.50
2022-11-05T10:05:33.591Z,81.96
2022-11-05T10:08:04.578Z,82.07
2022-11-05T10:10:41.187Z,82.38
2022-11-05T10:13:35.936Z,82.01
2022-11-05T10:16:06.840Z,81.83
2022-11-05T10:18:36.395Z,81.66
2022-11-05T10:21:05.674Z,81.58
2022-11-05T10:23:32.913Z,81.46
2022-11-05T10:26:05.292Z,80.98
2022-11-05T10:28:33.573Z,80.86
2022-11-05T10:31:03.523Z,80.42
2022-11-05T10:33:32.941Z,80.40
2022-11-05T10:36:09.635Z,80.14
2022-11-05T10:38:36.425Z,79.99
2022-11-05T10:41:14.937Z,80.19
2022-11-05T10:43:55.196Z,80.25
2022-11-05T10:46:38.238Z,79.91
2022-11-05T10:49:22.826Z,79.92
2022-11-05T10:51:57.359Z,79.79
2022-11-05T10:54:30.211Z,80.03
2022-11-05T10:56:56.875Z,80.00
2022-11-05T10:59:29.062Z,79.96
2022-11-05T11:02:08.320Z,79.90
2022-11-05T11:04:37.851Z,80.22
2022-11-05T11:07:05.207Z,80.06
2022-11-05T11:09:36.114Z,79.95
2022-11-05T11:12:15.843Z,79.95
2022-11-05T11:14:42.395Z,79.84
2022-11-05T11:17:27.651Z,79.84
2022-11-05T11:20:22.476Z,79.72
2022-11-05T11:23:04.296Z,79.30
2022-11-05T11:25:56.190Z,79.14
2022-11-05T11:28:27.057Z,79.05
2022-11-05T11:31:03.547Z,78.83
2022-11-05T11:33:31.776Z,78.81
2022-11-05T11:36:01.388Z,78.38
2022-11-05T11:38:34.441Z,78.19
2022-11-05T11:41:09.273Z,77.08
2022-11-05T11:43:40.839Z,76.67
2022-11-05T11:46:16.511Z,76.07
2022-11-05T11:48:47.461Z,75.55
2022-11-05T11:51:40.662Z,74.90
2022-11-05T11:54:28.869Z,74.11
2022-11-05T11:56:58.036Z,73.60
2022-11-05T11:59:54.037Z,73.01
2022-11-05T12:02:38.787Z,72.54
2022-11-05T12:05:27.785Z,72.29
2022-11-05T12:07:58.159Z,72.34
2022-11-05T12:10:49.934Z,72.40
2022-11-05T12:13:19.473Z,72.31
2022-11-05T12:15:55.213Z,72.41
2022-11-05T12:18:47.724Z,72.55
2022-11-05T12:21:51.323Z,72.60
2022-11-05T12:24:48.891Z,72.62
2022-11-05T12:27:26.098Z,72.44
2022-11-05T12:30:03.408Z,72.42
2022-11-05T12:32:38.584Z,72.52
2022-11-05T12:35:12.219Z,72.10
2022-11-05T12:37:46.383Z,72.81
2022-11-05T12:40:34.803Z,73.20
2022-11-05T12:43:11.724Z,73.31
2022-11-05T12:46:01.534Z,74.05
2022-11-05T12:49:01.148Z,74.34
2022-11-05T12:52:03.218Z,74.56
2022-11-05T12:54:32.817Z,73.77
2022-11-05T12:57:03.525Z,73.56
2022-11-05T12:59:56.057Z,73.55
2022-11-05T13:02:48.073Z,73.30
2022-11-05T13:05:36.541Z,73.25
2022-11-05T13:08:10.512Z,73.27
2022-11-05T13:10:44.674Z,73.21
2022-11-05T13:13:21.066Z,73.17
2022-11-05T13:16:05.266Z,73.20
2022-11-05T13:18:47.346Z,73.08
2022-11-05T13:21:19.785Z,73.18
2022-11-05T13:24:01.563Z,73.28
2022-11-05T13:26:37.588Z,73.10
2022-11-05T13:29:04.105Z,73.08
2022-11-05T13:31:36.480Z,73.33
2022-11-05T13:34:11.145Z,73.00
2022-11-05T13:37:19.073Z,73.44
2022-11-05T13:39:47.622Z,73.13
2022-11-05T13:42:51.858Z,73.51
2022-11-05T13:45:44.948Z,73.50
2022-11-05T13:48:49.390Z,73.15
2022-11-05T13:51:41.025Z,73.47
2022-11-05T13:54:30.936Z,73.41
2022-11-05T13:57:06.279Z,73.56
2022-11-05T13:59:51.805Z,73.47
2022-11-05T14:02:26.632Z,73.57
2022-11-05T14:05:01.967Z,73.87
2022-11-05T14:07:43.181Z,73.81
2022-11-05T14:10:28.408Z,73.68
2022-11-05T14:12:57.387Z,73.71
2022-11-05T14:15:28.932Z,73.53
2022-11-05T14:18:05.527Z,73.57
2022-11-05T14:20:32.052Z,73.65
2022-11-05T14:23:25.206Z,73.76
2022-11-05T14:25:54.626Z,73.63
2022-11-05T14:28:38.751Z,73.87
2022-11-05T14:31:31.411Z,73.92
2022-11-05T14:34:13.151Z,73.78
2022-11-05T14:36:44.518Z,74.10
2022-11-05T14:39:28.201Z,73.95
2022-11-05T14:41:57.737Z,73.98
2022-11-05T14:44:25.880Z,74.03
2022-11-05T14:46:56.273Z,74.10
2022-11-05T14:49:27.154Z,74.39
2022-11-05T14:51:56.705Z,74.37
2022-11-05T14:54:29.604Z,74.56
2022-11-05T14:56:59.903Z,74.53
2022-11-05T14:59:31.565Z,74.68
2022-11-05T15:02:03.861Z,74.74
2022-11-05T15:04:36.260Z,74.74
2022-11-05T15:07:02.864Z,74.99
2022-11-05T15:09:40.401Z,74.90
2022-11-05T15:12:30.180Z,75.08
2022-11-05T15:15:02.216Z,75.02
2022-11-05T15:18:08.196Z,75.12
2022-11-05T15:20:40.753Z,75.12
2022-11-05T15:23:16.918Z,75.18
2022-11-05T15:26:05.013Z,75.33
2022-11-05T15:28:37.246Z,75.41
2022-11-05T15:31:12.980Z,75.61
2022-11-05T15:33:45.098Z,75.57
2022-11-05T15:36:29.346Z,75.80
2022-11-05T15:39:27.795Z,75.94
2022-11-05T15:41:46.881Z,76.08
2022-11-05T15:44:32.996Z,76.29
2022-11-05T15:47:08.969Z,76.42
2022-11-05T15:49:35.719Z,76.51
2022-11-05T15:52:02.280Z,76.45
2022-11-05T15:54:30.535Z,76.40
2022-11-05T15:56:59.600Z,76.38
2022-11-05T15:59:29.283Z,76.49
2022-11-05T16:02:26.996Z,76.64
2022-11-05T16:04:53.655Z,76.67
2022-11-05T16:07:21.004Z,76.75
2022-11-05T16:09:59.516Z,76.62
2022-11-05T16:12:35.031Z,76.76
2022-11-05T16:15:19.902Z,76.87
2022-11-05T16:17:51.611Z,76.75
2022-11-05T16:20:25.721Z,76.87
2022-11-05T16:22:55.738Z,76.90
2022-11-05T16:25:22.432Z,77.00
2022-11-05T16:27:49.094Z,77.31
2022-11-05T16:30:17.759Z,77.22
2022-11-05T16:32:44.646Z,77.31
2022-11-05T16:35:23.075Z,77.16
2022-11-05T16:38:03.146Z,77.34
2022-11-05T16:40:29.713Z,77.30
2022-11-05T16:43:36.820Z,77.37
2022-11-05T16:46:03.396Z,77.52
2022-11-05T16:48:29.962Z,77.46
2022-11-05T16:50:56.505Z,77.54
2022-11-05T16:53:23.483Z,77.72
2022-11-05T16:55:50.150Z,77.96
2022-11-05T16:58:21.973Z,77.75
2022-11-05T17:00:50.891Z,77.95
2022-11-05T17:03:17.797Z,77.90
2022-11-05T17:05:44.535Z,77.99
2022-11-05T17:08:16.163Z,77.92
2022-11-05T17:10:42.773Z,78.01
2022-11-05T17:13:14.797Z,78.16
2022-11-05T17:15:43.776Z,78.17
2022-11-05T17:18:16.920Z,78.32
2022-11-05T17:20:48.189Z,78.20
2022-11-05T17:23:17.731Z,78.47
2022-11-05T17:25:47.089Z,78.85
2022-11-05T17:28:14.468Z,78.48
2022-11-05T17:30:42.042Z,78.69
2022-11-05T17:33:11.257Z,78.79
2022-11-05T17:35:39.753Z,78.72
2022-11-05T17:38:06.354Z,78.74
2022-11-05T17:40:37.120Z,78.91
2022-11-05T17:43:04.164Z,78.80
2022-11-05T17:45:33.598Z,78.79
2022-11-05T17:48:03.213Z,78.73
2022-11-05T17:50:32.220Z,79.04
2022-11-05T17:52:58.749Z,78.95
2022-11-05T17:55:25.822Z,78.94
2022-11-05T17:57:56.216Z,78.87
2022-11-05T18:00:24.176Z,78.98
2022-11-05T18:02:53.067Z,78.79
2022-11-05T18:05:21.738Z,78.70
2022-11-05T18:07:51.617Z,78.66
2022-11-05T18:10:18.244Z,78.68
2022-11-05T18:12:49.601Z,78.97
2022-11-05T18:15:17.400Z,78.69
2022-11-05T18:17:45.574Z,78.80
2022-11-05T18:20:18.924Z,78.92
2022-11-05T18:22:49.298Z,78.76
2022-11-05T18:25:16.544Z,78.78
2022-11-05T18:27:43.102Z,78.89
2022-11-05T18:30:11.059Z,78.83
2022-11-05T18:32:38.819Z,78.92
2022-11-05T18:35:05.691Z,78.93
2022-11-05T18:37:34.485Z,78.98
2022-11-05T18:40:01.045Z,78.97
2022-11-05T18:42:27.667Z,79.04
2022-11-05T18:44:54.256Z,78.82
2022-11-05T18:47:20.931Z,78.89
2022-11-05T18:49:49.733Z,78.74
2022-11-05T18:52:16.426Z,79.00
2022-11-05T18:54:43.032Z,79.07
2022-11-05T18:57:09.585Z,78.97
2022-11-05T18:59:39.914Z,78.98
2022-11-05T19:02:08.249Z,78.84
2022-11-05T19:04:38.280Z,79.06
2022-11-05T19:07:11.566Z,79.12
2022-11-05T19:09:40.318Z,78.84
2022-11-05T19:12:09.487Z,79.08
2022-11-05T19:14:36.389Z,79.20
2022-11-05T19:17:04.284Z,79.02
2022-11-05T19:19:31.084Z,79.00
2022-11-05T19:21:57.676Z,79.12
2022-11-05T19:24:24.272Z,78.97
2022-11-05T19:26:50.937Z,79.26
2022-11-05T19:29:17.535Z,79.14
2022-11-05T19:31:44.386Z,79.08
2022-11-05T19:34:15.780Z,79.15
2022-11-05T19:36:42.882Z,79.39
2022-11-05T19:39:13.527Z,79.04
2022-11-05T19:41:40.566Z,79.31
2022-11-05T19:44:09.487Z,79.56
2022-11-05T19:46:36.036Z,79.89
2022-11-05T19:49:02.821Z,79.83
2022-11-05T19:51:31.522Z,80.27
2022-11-05T19:53:59.935Z,80.10
2022-11-05T19:56:29.858Z,80.25
2022-11-05T19:58:57.502Z,80.28
2022-11-05T20:01:25.951Z,80.30
2022-11-05T20:03:54.962Z,80.56
2022-11-05T20:06:34.690Z,80.15
2022-11-05T20:09:25.529Z,80.50
2022-11-05T20:11:56.476Z,80.22
2022-11-05T20:14:24.923Z,80.36
2022-11-05T20:16:53.544Z,80.18
2022-11-05T20:19:21.832Z,80.07
2022-11-05T20:21:49.022Z,80.52
2022-11-05T20:24:24.311Z,80.43
2022-11-05T20:26:53.855Z,80.43
2022-11-05T20:29:20.424Z,80.41
2022-11-05T20:31:50.066Z,80.14
2022-11-05T20:34:16.726Z,80.37
2022-11-05T20:36:43.335Z,80.35
2022-11-05T20:39:10.364Z,80.72
2022-11-05T20:41:36.869Z,80.60
2022-11-05T20:44:04.700Z,80.42
2022-11-05T20:46:32.824Z,80.50
2022-11-05T20:49:01.966Z,80.31
2022-11-05T20:51:28.557Z,80.51
2022-11-05T20:53:56.890Z,80.48
2022-11-05T20:56:29.471Z,80.78
2022-11-05T20:59:00.409Z,80.65
2022-11-05T21:01:32.956Z,80.41
2022-11-05T21:04:00.091Z,80.53
2022-11-05T21:06:26.796Z,80.53
2022-11-05T21:08:53.977Z,80.90
2022-11-05T21:11:20.737Z,80.58
2022-11-05T21:13:47.661Z,80.52
2022-11-05T21:16:18.489Z,80.26
2022-11-05T21:18:46.053Z,80.61
2022-11-05T21:21:17.856Z,80.52
2022-11-05T21:23:44.695Z,80.87
2022-11-05T21:26:13.942Z,81.11
2022-11-05T21:28:41.686Z,81.32
2022-11-05T21:31:09.354Z,81.41
2022-11-05T21:33:38.711Z,81.43
2022-11-05T21:36:10.501Z,81.19
2022-11-05T21:38:37.284Z,81.63
2022-11-05T21:41:04.815Z,81.38
2022-11-05T21:43:31.730Z,81.54
2022-11-05T21:46:01.856Z,81.37
2022-11-05T21:48:34.308Z,81.29
2022-11-05T21:51:19.425Z,81.38
2022-11-05T21:54:04.835Z,81.43
2022-11-05T21:56:50.385Z,81.51
2022-11-05T21:59:38.574Z,81.76
2022-11-05T22:02:05.525Z,81.30
2022-11-05T22:04:34.510Z,81.31
2022-11-05T22:07:01.259Z,81.26
2022-11-05T22:09:28.112Z,81.34
2022-11-05T22:11:55.247Z,81.60
2022-11-05T22:14:22.108Z,81.54
2022-11-05T22:16:48.844Z,81.26
2022-11-05T22:19:15.614Z,81.82
2022-11-05T22:21:42.340Z,81.77
2022-11-05T22:24:09.395Z,81.93
2022-11-05T22:26:36.978Z,81.65
2022-11-05T22:29:04.538Z,81.88
2022-11-05T22:31:35.954Z,81.96
2022-11-05T22:34:04.359Z,81.88
2022-11-05T22:36:30.945Z,81.72
2022-11-05T22:38:57.437Z,81.88
2022-11-05T22:41:24.083Z,81.61
2022-11-05T22:43:50.886Z,81.68
2022-11-05T22:46:21.802Z,81.68
2022-11-05T22:48:48.980Z,81.93
2022-11-05T22:51:20.290Z,81.86
2022-11-05T22:53:47.482Z,81.90
2022-11-05T22:56:18.829Z,81.91
2022-11-05T22:58:45.543Z,81.99
2022-11-05T23:01:13.455Z,82.11
2022-11-05T23:03:41.808Z,82.19
2022-11-05T23:06:34.081Z,82.17
2022-11-05T23:09:20.557Z,82.10
2022-11-05T23:11:50.296Z,82.52
2022-11-05T23:14:17.132Z,82.51
2022-11-05T23:17:02.807Z,82.37
2022-11-05T23:19:48.296Z,82.23
2022-11-05T23:22:36.955Z,82.60
2022-11-05T23:25:05.302Z,83.01
2022-11-05T23:27:38.496Z,83.20
2022-11-05T23:30:11.983Z,83.09
2022-11-05T23:32:38.831Z,83.03
2022-11-05T23:35:06.328Z,83.37
2022-11-05T23:37:51.544Z,83.22
2022-11-05T23:40:24.223Z,83.62
2022-11-05T23:43:23.045Z,83.54
2022-11-05T23:45:49.536Z,83.23
2022-11-05T23:48:37.102Z,83.24
2022-11-05T23:51:08.018Z,83.51
2022-11-05T23:53:37.379Z,83.72
2022-11-05T23:56:12.780Z,83.95
2022-11-05T23:58:42.802Z,84.05
